createdAt,value
2022-09-12T00:02:20.995Z,98619.63
2022-09-12T00:05:23.805Z,98615.00
2022-09-12T00:08:26.563Z,98616.56
2022-09-12T00:11:31.277Z,98622.03
2022-09-12T00:14:33.936Z,98619.81
2022-09-12T00:17:36.668Z,98621.44
2022-09-12T00:20:42.269Z,98622.13
2022-09-12T00:23:44.993Z,98602.31
2022-09-12T00:26:49.381Z,98598.13
2022-09-12T00:29:52.061Z,98604.44
2022-09-12T00:32:54.848Z,98605.47
2022-09-12T00:35:57.577Z,98599.44
2022-09-12T00:39:00.455Z,98599.00
2022-09-12T00:42:04.773Z,98592.97
2022-09-12T00:45:08.044Z,98595.19
2022-09-12T00:48:18.617Z,98591.75
2022-09-12T00:51:21.665Z,98588.91
2022-09-12T00:54:26.649Z,98577.50
2022-09-12T00:57:33.630Z,98574.84
2022-09-12T01:00:36.315Z,98582.94
2022-09-12T01:03:38.993Z,98576.13
2022-09-12T01:06:43.216Z,98571.66
2022-09-12T01:09:46.337Z,98566.94
2022-09-12T01:12:50.409Z,98564.16
2022-09-12T01:15:54.341Z,98569.09
2022-09-12T01:19:05.860Z,98569.97
2022-09-12T01:22:19.979Z,98569.63
2022-09-12T01:25:27.687Z,98563.31
2022-09-12T01:28:52.049Z,98565.69
2022-09-12T01:32:00.580Z,98562.16
2022-09-12T01:35:08.408Z,98558.34
2022-09-12T01:38:14.731Z,98551.88
2022-09-12T01:41:25.209Z,98555.25
2022-09-12T01:44:36.107Z,98555.19
2022-09-12T01:47:42.848Z,98557.34
2022-09-12T01:50:47.710Z,98553.69
2022-09-12T01:53:53.501Z,98553.63
2022-09-12T01:56:57.961Z,98540.19
2022-09-12T02:00:03.753Z,98537.94
2022-09-12T02:03:10.566Z,98537.69
2022-09-12T02:06:16.264Z,98534.75
2022-09-12T02:09:21.787Z,98538.00
2022-09-12T02:12:26.972Z,98542.84
2022-09-12T02:15:32.120Z,98548.31
2022-09-12T02:18:39.021Z,98537.31
2022-09-12T02:21:43.420Z,98541.84
2022-09-12T02:24:49.115Z,98535.41
2022-09-12T02:27:54.357Z,98537.94
2022-09-12T02:31:00.758Z,98533.31
2022-09-12T02:34:10.449Z,98530.94
2022-09-12T02:37:17.219Z,98522.84
2022-09-12T02:40:20.241Z,98516.97
2022-09-12T02:43:22.943Z,98514.88
2022-09-12T02:46:28.460Z,98526.25
2022-09-12T02:49:32.560Z,98529.22
2022-09-12T02:52:35.915Z,98533.47
2022-09-12T02:55:40.358Z,98533.59
2022-09-12T02:58:43.011Z,98539.84
2022-09-12T03:02:05.133Z,98535.13
2022-09-12T03:05:27.075Z,98535.13
2022-09-12T03:08:44.640Z,98542.34
2022-09-12T03:11:55.028Z,98542.63
2022-09-12T03:15:04.126Z,98545.06
2022-09-12T03:18:10.803Z,98539.59
2022-09-12T03:21:19.587Z,98534.34
2022-09-12T03:24:25.762Z,98529.34
2022-09-12T03:27:31.202Z,98530.03
2022-09-12T03:30:38.743Z,98522.91
2022-09-12T03:33:41.426Z,98528.91
2022-09-12T03:36:45.534Z,98522.56
2022-09-12T03:39:48.278Z,98525.34
2022-09-12T03:42:50.958Z,98527.03
2022-09-12T03:45:53.937Z,98521.66
2022-09-12T03:48:56.685Z,98517.03
2022-09-12T03:52:00.805Z,98520.19
2022-09-12T03:55:03.536Z,98517.91
2022-09-12T03:58:06.242Z,98530.53
2022-09-12T04:01:12.456Z,98530.66
2022-09-12T04:04:15.201Z,98529.53
2022-09-12T04:07:19.311Z,98524.22
2022-09-12T04:10:22.678Z,98527.81
2022-09-12T04:13:25.359Z,98525.22
2022-09-12T04:16:28.141Z,98530.19
2022-09-12T04:19:30.947Z,98521.22
2022-09-12T04:22:34.995Z,98530.19
2022-09-12T04:25:37.740Z,98533.00
2022-09-12T04:28:40.934Z,98526.00
2022-09-12T04:31:43.624Z,98523.22
2022-09-12T04:34:47.056Z,98531.00
2022-09-12T04:37:51.170Z,98535.91
2022-09-12T04:40:53.860Z,98533.72
2022-09-12T04:43:58.267Z,98529.84
2022-09-12T04:47:00.994Z,98523.56
2022-09-12T04:50:04.102Z,98521.13
2022-09-12T04:53:08.181Z,98523.47
2022-09-12T04:56:12.204Z,98525.91
2022-09-12T04:59:15.856Z,98528.63
2022-09-12T05:02:18.644Z,98528.66
2022-09-12T05:05:24.561Z,98519.84
2022-09-12T05:08:28.665Z,98520.06
2022-09-12T05:11:59.744Z,98522.28
2022-09-12T05:14:55.253Z,98525.22
2022-09-12T05:17:57.935Z,98517.94
2022-09-12T05:21:01.375Z,98512.44
2022-09-12T05:24:06.737Z,98510.00
2022-09-12T05:27:09.391Z,98509.50
2022-09-12T05:30:12.852Z,98491.38
2022-09-12T05:33:16.343Z,98492.63
2022-09-12T05:36:20.062Z,98485.66
2022-09-12T05:39:24.652Z,98491.38
2022-09-12T05:42:27.364Z,98498.09
2022-09-12T05:45:30.837Z,98500.03
2022-09-12T05:48:34.464Z,98491.47
2022-09-12T05:51:39.381Z,98503.63
2022-09-12T05:54:43.508Z,98505.09
2022-09-12T05:57:46.931Z,98493.97
2022-09-12T06:00:49.742Z,98488.41
2022-09-12T06:03:53.408Z,98493.63
2022-09-12T06:06:56.258Z,98490.41
2022-09-12T06:10:00.669Z,98489.50
2022-09-12T06:13:04.525Z,98482.94
2022-09-12T06:16:08.220Z,98489.19
2022-09-12T06:19:15.222Z,98488.50
2022-09-12T06:22:18.048Z,98494.72
2022-09-12T06:25:22.544Z,98499.31
2022-09-12T06:28:25.408Z,98502.78
2022-09-12T06:31:30.130Z,98503.13
2022-09-12T06:34:33.870Z,98501.13
2022-09-12T06:37:37.761Z,98499.66
2022-09-12T06:40:45.063Z,98493.00
2022-09-12T06:43:47.711Z,98490.53
2022-09-12T06:46:50.749Z,98495.19
2022-09-12T06:49:53.416Z,98499.00
2022-09-12T06:52:56.061Z,98496.13
2022-09-12T06:56:00.850Z,98501.97
2022-09-12T06:59:03.604Z,98513.38
2022-09-12T07:02:06.400Z,98527.25
2022-09-12T07:05:10.584Z,98514.78
2022-09-12T07:08:25.604Z,98513.94
2022-09-12T07:11:31.737Z,98516.06
2022-09-12T07:14:34.458Z,98512.25
2022-09-12T07:17:37.154Z,98515.59
2022-09-12T07:20:39.905Z,98512.97
2022-09-12T07:23:43.031Z,98515.59
2022-09-12T07:26:47.112Z,98521.91
2022-09-12T07:29:49.848Z,98526.88
2022-09-12T07:32:55.463Z,98519.44
2022-09-12T07:36:02.069Z,98521.44
2022-09-12T07:39:04.872Z,98519.13
2022-09-12T07:42:09.296Z,98514.81
2022-09-12T07:45:12.963Z,98509.78
2022-09-12T07:48:16.411Z,98512.16
2022-09-12T07:51:21.919Z,98500.31
2022-09-12T07:54:25.101Z,98503.81
2022-09-12T07:57:29.563Z,98496.13
2022-09-12T08:00:35.933Z,98511.94
2022-09-12T08:03:38.857Z,98498.63
2022-09-12T08:06:41.714Z,98496.16
2022-09-12T08:09:50.095Z,98493.50
2022-09-12T08:12:54.172Z,98487.84
2022-09-12T08:15:59.913Z,98486.81
2022-09-12T08:19:03.132Z,98501.81
2022-09-12T08:22:06.093Z,98481.97
2022-09-12T08:25:09.145Z,98489.50
2022-09-12T08:28:13.443Z,98484.00
2022-09-12T08:31:17.606Z,98481.84
2022-09-12T08:34:21.127Z,98480.84
2022-09-12T08:37:24.063Z,98473.00
2022-09-12T08:40:27.014Z,98495.47
2022-09-12T08:43:37.776Z,98488.50
2022-09-12T08:46:45.309Z,98490.50
2022-09-12T08:49:52.767Z,98485.50
2022-09-12T08:52:58.753Z,98479.47
2022-09-12T08:56:02.019Z,98482.50
2022-09-12T08:59:06.145Z,98489.47
2022-09-12T09:02:18.633Z,98481.16
2022-09-12T09:05:24.658Z,98489.50
2022-09-12T09:08:43.083Z,98511.47
2022-09-12T09:11:53.677Z,98512.28
2022-09-12T09:15:12.462Z,98502.47
2022-09-12T09:18:19.710Z,98496.47
2022-09-12T09:21:24.908Z,98507.13
2022-09-12T09:24:29.792Z,98511.47
2022-09-12T09:27:41.062Z,98493.81
2022-09-12T09:30:46.019Z,98500.63
2022-09-12T09:33:50.920Z,98502.13
2022-09-12T09:36:58.565Z,98507.44
2022-09-12T09:40:06.685Z,98498.44
2022-09-12T09:43:16.245Z,98502.75
2022-09-12T09:46:20.417Z,98495.75
2022-09-12T09:49:23.909Z,98497.53
2022-09-12T09:52:29.529Z,98491.03
2022-09-12T09:55:36.404Z,98497.28
2022-09-12T09:58:41.170Z,98505.00
2022-09-12T10:01:49.505Z,98499.28
2022-09-12T10:04:55.292Z,98498.94
2022-09-12T10:07:58.465Z,98487.53
2022-09-12T10:11:03.253Z,98483.91
2022-09-12T10:14:09.039Z,98494.72
2022-09-12T10:17:33.235Z,98497.19
2022-09-12T10:20:40.368Z,98498.84
2022-09-12T10:23:43.585Z,98507.31
2022-09-12T10:26:47.671Z,98505.19
2022-09-12T10:29:51.927Z,98503.69
2022-09-12T10:37:04.051Z,98504.50
2022-09-12T10:40:08.013Z,98501.84
2022-09-12T10:43:18.037Z,98502.94
2022-09-12T10:46:30.473Z,98491.94
2022-09-12T10:49:38.117Z,98490.94
2022-09-12T10:52:42.682Z,98486.41
2022-09-12T10:55:53.928Z,98490.03
2022-09-12T10:59:12.065Z,98492.72
2022-09-12T11:02:16.445Z,98494.56
2022-09-12T11:05:23.827Z,98493.72
2022-09-12T11:08:50.290Z,98491.69
2022-09-12T11:12:02.485Z,98494.22
2022-09-12T11:15:11.343Z,98477.88
2022-09-12T11:18:19.471Z,98478.69
2022-09-12T11:21:30.842Z,98474.00
2022-09-12T11:24:39.421Z,98477.50
2022-09-12T11:28:03.285Z,98479.19
2022-09-12T11:31:18.430Z,98477.34
2022-09-12T11:34:26.954Z,98486.47
2022-09-12T11:37:53.921Z,98486.94
2022-09-12T11:40:59.886Z,98485.03
2022-09-12T11:44:09.862Z,98489.88
2022-09-12T11:47:15.416Z,98482.16
2022-09-12T11:50:21.493Z,98483.97
2022-09-12T11:53:27.438Z,98489.25
2022-09-12T11:56:30.480Z,98488.91
2022-09-12T11:59:36.483Z,98482.13
2022-09-12T12:02:42.477Z,98487.75
2022-09-12T12:05:52.291Z,98489.41
2022-09-12T12:08:55.134Z,98490.47
2022-09-12T12:11:59.905Z,98485.75
2022-09-12T12:15:03.381Z,98497.06
2022-09-12T12:18:10.247Z,98493.75
2022-09-12T12:21:20.859Z,98489.16
2022-09-12T12:24:25.128Z,98486.47
2022-09-12T12:27:42.912Z,98498.81
2022-09-12T12:31:06.203Z,98503.06
2022-09-12T12:34:27.839Z,98498.38
2022-09-12T12:37:51.422Z,98493.38
2022-09-12T12:40:54.467Z,98483.03
2022-09-12T12:43:57.822Z,98476.56
2022-09-12T12:47:15.050Z,98477.53
2022-09-12T12:50:26.497Z,98479.34
2022-09-12T12:53:29.639Z,98468.09
2022-09-12T12:56:40.915Z,98477.78
2022-09-12T12:59:48.323Z,98471.44
2022-09-12T13:02:52.927Z,98474.56
2022-09-12T13:06:02.222Z,98472.81
2022-09-12T13:09:05.822Z,98480.75
2022-09-12T13:12:09.709Z,98469.59
2022-09-12T13:15:27.329Z,98465.91
2022-09-12T13:18:33.820Z,98465.31
2022-09-12T13:21:38.473Z,98458.91
2022-09-12T13:24:44.359Z,98445.88
2022-09-12T13:27:57.638Z,98452.44
2022-09-12T13:31:03.810Z,98450.19
2022-09-12T13:34:08.013Z,98446.25
2022-09-12T13:37:28.865Z,98440.59
2022-09-12T13:40:34.565Z,98433.03
2022-09-12T13:43:40.354Z,98437.78
2022-09-12T13:46:43.965Z,98443.81
2022-09-12T13:49:47.053Z,98441.38
2022-09-12T13:52:53.374Z,98448.16
2022-09-12T13:55:58.573Z,98442.16
2022-09-12T13:59:02.508Z,98440.47
2022-09-12T14:02:18.283Z,98442.31
2022-09-12T14:05:22.175Z,98449.09
2022-09-12T14:08:27.047Z,98450.47
2022-09-12T14:11:30.948Z,98458.28
2022-09-12T14:14:36.063Z,98461.09
2022-09-12T14:17:41.199Z,98458.97
2022-09-12T14:20:44.571Z,98462.41
2022-09-12T14:23:50.372Z,98451.13
2022-09-12T14:26:56.886Z,98449.94
2022-09-12T14:30:03.113Z,98448.63
2022-09-12T14:33:07.623Z,98443.91
2022-09-12T14:36:13.205Z,98448.34
2022-09-12T14:39:23.439Z,98449.28
2022-09-12T14:42:28.655Z,98448.34
2022-09-12T14:45:33.171Z,98447.41
2022-09-12T14:48:37.521Z,98446.59
2022-09-12T14:51:41.277Z,98445.41
2022-09-12T14:54:45.798Z,98444.84
2022-09-12T14:57:50.637Z,98440.53
2022-09-12T15:00:54.586Z,98443.75
2022-09-12T15:03:57.766Z,98434.72
2022-09-12T15:07:00.645Z,98430.94
2022-09-12T15:10:07.240Z,98422.72
2022-09-12T15:13:15.458Z,98422.72
2022-09-12T15:16:18.353Z,98419.94
2022-09-12T15:19:21.310Z,98433.22
2022-09-12T15:22:26.170Z,98441.53
2022-09-12T15:25:30.317Z,98440.00
2022-09-12T15:28:33.902Z,98445.25
2022-09-12T15:31:36.700Z,98455.31
2022-09-12T15:34:39.609Z,98450.25
2022-09-12T15:37:42.432Z,98455.41
2022-09-12T15:40:53.649Z,98450.56
2022-09-12T15:43:56.833Z,98445.13
2022-09-12T15:46:59.533Z,98445.94
2022-09-12T16:02:36.167Z,98458.81
2022-09-12T16:05:39.080Z,98457.16
2022-09-12T16:08:41.876Z,98459.53
2022-09-12T16:11:45.121Z,98465.44
2022-09-12T16:14:47.760Z,98467.66
2022-09-12T16:17:51.873Z,98465.22
2022-09-12T16:20:54.801Z,98465.94
2022-09-12T16:23:57.515Z,98467.56
2022-09-12T16:27:01.243Z,98460.56
2022-09-12T16:30:07.045Z,98467.63
2022-09-12T16:33:11.046Z,98470.69
2022-09-12T16:36:17.842Z,98474.88
2022-09-12T16:39:21.724Z,98479.69
2022-09-12T16:42:24.413Z,98480.00
2022-09-12T16:45:27.134Z,98478.72
2022-09-12T16:48:31.468Z,98487.22
2022-09-12T16:51:35.930Z,98485.06
2022-09-12T16:54:38.617Z,98479.72
2022-09-12T16:57:41.354Z,98475.25
2022-09-12T17:00:44.728Z,98475.09
2022-09-12T17:03:49.541Z,98469.28
2022-09-12T17:06:52.729Z,98474.28
2022-09-12T17:09:55.685Z,98471.13
2022-09-12T17:12:58.850Z,98468.75
2022-09-12T17:16:02.198Z,98462.66
2022-09-12T17:19:07.417Z,98459.53
2022-09-12T17:22:10.211Z,98461.19
2022-09-12T17:25:13.283Z,98462.34
2022-09-12T17:28:16.130Z,98461.84
2022-09-12T17:31:22.483Z,98471.03
2022-09-12T17:34:27.311Z,98472.13
2022-09-12T17:37:31.996Z,98462.03
2022-09-12T17:40:58.099Z,98461.13
2022-09-12T17:43:59.810Z,98470.34
2022-09-12T17:47:03.678Z,98460.47
2022-09-12T17:50:30.462Z,98463.50
2022-09-12T17:53:31.773Z,98459.38
2022-09-12T17:56:39.628Z,98455.50
2022-09-12T17:59:42.381Z,98455.53
2022-09-12T18:02:47.198Z,98450.50
2022-09-12T18:05:54.147Z,98452.47
2022-09-12T18:09:00.361Z,98456.84
2022-09-12T18:12:03.990Z,98451.84
2022-09-12T18:15:08.433Z,98451.50
2022-09-12T18:18:14.776Z,98450.84
2022-09-12T18:21:31.578Z,98447.19
2022-09-12T18:24:36.878Z,98459.16
2022-09-12T18:27:42.297Z,98455.88
2022-09-12T18:30:50.541Z,98448.53
2022-09-12T18:33:53.890Z,98450.53
2022-09-12T18:37:05.740Z,98441.56
2022-09-12T18:40:17.279Z,98438.19
2022-09-12T18:43:39.301Z,98443.53
2022-09-12T18:46:42.665Z,98435.22
2022-09-12T18:49:49.163Z,98431.50
2022-09-12T18:52:59.110Z,98437.16
2022-09-12T18:56:04.754Z,98440.16
2022-09-12T18:59:15.244Z,98435.69
2022-09-12T19:02:18.689Z,98428.69
2022-09-12T19:05:23.453Z,98445.19
2022-09-12T19:08:30.529Z,98428.88
2022-09-12T19:11:33.661Z,98417.84
2022-09-12T19:14:37.550Z,98416.06
2022-09-12T19:17:41.191Z,98410.31
2022-09-12T19:20:44.294Z,98403.22
2022-09-12T19:23:49.874Z,98410.50
2022-09-12T19:26:52.637Z,98396.00
2022-09-12T19:29:55.445Z,98388.00
2022-09-12T19:32:58.366Z,98392.78
2022-09-12T19:36:02.682Z,98400.41
2022-09-12T19:39:07.673Z,98399.84
2022-09-12T19:42:10.940Z,98401.38
2022-09-12T19:45:21.151Z,98391.50
2022-09-12T19:48:24.143Z,98401.56
2022-09-12T19:51:27.246Z,98401.66
2022-09-12T19:54:31.303Z,98395.78
2022-09-12T19:57:34.156Z,98405.28
2022-09-12T20:00:37.477Z,98402.25
2022-09-12T20:03:40.892Z,98399.56
2022-09-12T20:06:43.658Z,98400.78
2022-09-12T20:09:47.728Z,98403.78
2022-09-12T20:12:50.677Z,98395.66
2022-09-12T20:15:53.560Z,98385.78
2022-09-12T20:18:57.250Z,98381.56
2022-09-12T20:21:59.895Z,98380.06
2022-09-12T20:25:04.424Z,98372.78
2022-09-12T20:28:07.120Z,98368.59
2022-09-12T20:31:12.383Z,98370.13
2022-09-12T20:34:15.863Z,98372.63
2022-09-12T20:37:18.806Z,98373.31
2022-09-12T20:40:22.854Z,98366.13
2022-09-12T20:43:25.550Z,98368.59
2022-09-12T20:46:28.946Z,98361.25
2022-09-12T20:49:31.680Z,98361.28
2022-09-12T20:52:34.359Z,98358.91
2022-09-12T20:55:38.721Z,98351.63
2022-09-12T20:58:44.029Z,98346.44
2022-09-12T21:01:47.777Z,98340.44
2022-09-12T21:04:51.180Z,98336.16
2022-09-12T21:07:53.988Z,98335.66
2022-09-12T21:10:58.924Z,98339.91
2022-09-12T21:14:01.604Z,98330.91
2022-09-12T21:17:05.329Z,98330.56
2022-09-12T21:20:11.385Z,98326.63
2022-09-12T21:23:14.672Z,98330.56
2022-09-12T21:26:19.044Z,98335.50
2022-09-12T21:29:21.850Z,98342.72
2022-09-12T21:32:24.582Z,98350.25
2022-09-12T21:35:27.263Z,98346.50
2022-09-12T21:38:30.508Z,98342.72
2022-09-12T21:41:34.595Z,98346.88
2022-09-12T21:44:37.268Z,98344.53
2022-09-12T21:47:40.201Z,98347.41
2022-09-12T21:50:42.861Z,98341.63
2022-09-12T21:53:45.670Z,98338.75
2022-09-12T21:56:49.669Z,98346.56
2022-09-12T21:59:52.284Z,98357.22
2022-09-12T22:02:54.965Z,98362.69
2022-09-12T22:05:57.909Z,98361.13
2022-09-12T22:09:01.038Z,98364.50
2022-09-12T22:12:05.314Z,98364.56
2022-09-12T22:15:29.306Z,98363.94
2022-09-12T22:18:31.157Z,98369.94
2022-09-12T22:21:33.861Z,98370.78
2022-09-12T22:24:35.559Z,98357.56
2022-09-12T22:27:40.443Z,98359.91
2022-09-12T22:30:47.867Z,98351.13
2022-09-12T22:33:51.928Z,98356.28
2022-09-12T22:36:55.040Z,98349.31
2022-09-12T22:39:57.777Z,98342.97
2022-09-12T22:43:02.210Z,98339.81
2022-09-12T22:46:07.186Z,98329.97
2022-09-12T22:49:09.975Z,98337.66
2022-09-12T22:52:12.888Z,98335.69
2022-09-12T22:55:15.608Z,98345.50
2022-09-12T22:58:19.599Z,98337.84
2022-09-12T23:01:22.956Z,98334.00
2022-09-12T23:04:25.707Z,98341.00
2022-09-12T23:07:28.592Z,98341.16
2022-09-12T23:10:32.167Z,98340.19
2022-09-12T23:13:36.467Z,98334.03
2022-09-12T23:16:39.427Z,98339.84
2022-09-12T23:19:42.463Z,98341.00
2022-09-12T23:22:45.254Z,98335.66
2022-09-12T23:25:47.985Z,98334.34
2022-09-12T23:28:53.188Z,98334.34
2022-09-12T23:31:55.903Z,98326.19
2022-09-12T23:34:59.058Z,98316.06
2022-09-12T23:38:01.759Z,98317.22
2022-09-12T23:41:05.116Z,98310.88
2022-09-12T23:44:09.288Z,98316.19
2022-09-12T23:47:11.948Z,98314.06
2022-09-12T23:50:14.712Z,98309.22
2022-09-12T23:53:18.521Z,98298.06
2022-09-12T23:56:22.173Z,98294.75
2022-09-12T23:59:26.196Z,98292.25
